createdAt,value
2019-03-24T00:00:45.931Z,45.70
2019-03-24T00:01:45.922Z,42.90
2019-03-24T00:02:45.907Z,42.50
2019-03-24T00:03:45.901Z,42.40
2019-03-24T00:04:45.895Z,38.60
2019-03-24T00:05:45.872Z,41.30
2019-03-24T00:06:45.863Z,41.40
2019-03-24T00:07:45.855Z,40.60
2019-03-24T00:08:45.967Z,43.00
2019-03-24T00:09:45.850Z,42.80
2019-03-24T00:10:45.818Z,41.10
2019-03-24T00:11:45.817Z,43.20
2019-03-24T00:12:45.796Z,40.60
2019-03-24T00:13:45.786Z,43.60
2019-03-24T00:14:45.787Z,39.70
2019-03-24T00:15:45.781Z,41.30
2019-03-24T00:16:45.757Z,41.90
2019-03-24T00:17:45.743Z,40.70
2019-03-24T00:18:45.740Z,41.90
2019-03-24T00:19:45.731Z,41.00
2019-03-24T00:20:45.721Z,40.60
2019-03-24T00:21:45.706Z,40.00
2019-03-24T00:22:45.689Z,37.90
2019-03-24T00:23:45.676Z,38.30
2019-03-24T00:24:45.686Z,33.90
2019-03-24T00:25:45.691Z,35.70
2019-03-24T00:26:45.647Z,38.00
2019-03-24T00:27:45.641Z,36.00
2019-03-24T00:28:45.628Z,38.20
2019-03-24T00:29:45.618Z,36.40
2019-03-24T00:30:45.627Z,35.80
2019-03-24T00:31:45.598Z,40.10
2019-03-24T00:32:45.581Z,40.20
2019-03-24T00:33:45.575Z,37.20
2019-03-24T00:34:45.562Z,34.20
2019-03-24T00:35:45.549Z,35.40
2019-03-24T00:36:45.548Z,37.20
2019-03-24T00:37:45.523Z,38.00
2019-03-24T00:38:45.515Z,35.80
2019-03-24T00:39:46.060Z,35.10
2019-03-24T00:40:45.492Z,34.50
2019-03-24T00:41:45.509Z,34.70
2019-03-24T00:42:45.467Z,30.70
2019-03-24T00:43:45.458Z,33.10
2019-03-24T00:44:45.449Z,34.20
2019-03-24T00:45:45.434Z,33.50
2019-03-24T00:46:45.427Z,33.30
2019-03-24T00:47:45.424Z,33.20
2019-03-24T00:48:45.403Z,34.50
2019-03-24T00:49:45.416Z,34.50
2019-03-24T00:50:45.378Z,33.10
2019-03-24T00:51:45.369Z,30.90
2019-03-24T00:52:45.375Z,30.40
2019-03-24T00:53:45.351Z,30.20
2019-03-24T00:54:45.340Z,30.30
2019-03-24T00:55:45.336Z,28.30
2019-03-24T00:56:45.318Z,30.10
2019-03-24T00:57:45.311Z,29.90
2019-03-24T00:58:45.298Z,28.90
2019-03-24T00:59:45.286Z,27.20
2019-03-24T01:00:45.270Z,28.50
2019-03-24T01:01:45.264Z,28.50
2019-03-24T01:02:45.263Z,27.30
2019-03-24T01:03:45.247Z,26.80
2019-03-24T01:04:45.241Z,30.70
2019-03-24T01:05:45.220Z,30.20
2019-03-24T01:06:45.215Z,27.30
2019-03-24T01:07:45.198Z,28.60
2019-03-24T01:08:45.234Z,28.90
2019-03-24T01:09:45.172Z,29.20
2019-03-24T01:10:45.161Z,27.60
2019-03-24T01:11:45.156Z,27.50
2019-03-24T01:12:45.152Z,27.40
2019-03-24T01:13:45.128Z,27.30
2019-03-24T01:14:45.128Z,28.40
2019-03-24T01:15:48.036Z,27.30
2019-03-24T01:16:45.099Z,28.50
2019-03-24T01:17:45.085Z,25.70
2019-03-24T01:18:45.079Z,24.40
2019-03-24T01:19:45.106Z,27.70
2019-03-24T01:20:45.050Z,30.20
2019-03-24T01:21:45.038Z,32.60
2019-03-24T01:22:45.042Z,25.80
2019-03-24T01:23:45.020Z,27.40
2019-03-24T01:24:45.051Z,28.90
2019-03-24T01:25:45.001Z,27.20
2019-03-24T01:26:44.988Z,28.50
2019-03-24T01:27:44.981Z,27.40
2019-03-24T01:28:44.966Z,29.30
2019-03-24T01:29:44.958Z,29.60
2019-03-24T01:30:44.958Z,30.70
2019-03-24T01:31:44.935Z,28.80
2019-03-24T01:32:44.921Z,28.50
2019-03-24T01:33:44.912Z,30.70
2019-03-24T01:34:44.896Z,28.20
2019-03-24T01:35:44.895Z,29.30
2019-03-24T01:36:44.875Z,26.20
2019-03-24T01:37:44.868Z,29.10
2019-03-24T01:38:44.860Z,26.30
2019-03-24T01:39:44.844Z,29.20
2019-03-24T01:40:44.852Z,27.30
2019-03-24T01:41:44.823Z,29.10
2019-03-24T01:42:44.811Z,26.10
2019-03-24T01:43:44.828Z,28.60
2019-03-24T01:44:44.789Z,25.50
2019-03-24T01:45:44.792Z,26.30
2019-03-24T01:46:44.833Z,26.70
2019-03-24T01:47:44.753Z,29.70
2019-03-24T01:48:44.743Z,22.80
2019-03-24T01:49:44.759Z,29.90
2019-03-24T01:50:44.740Z,28.20
2019-03-24T01:51:44.758Z,26.30
2019-03-24T01:52:44.701Z,28.60
2019-03-24T01:53:44.684Z,27.40
2019-03-24T01:54:44.702Z,32.60
2019-03-24T01:55:44.669Z,27.50
2019-03-24T01:56:44.694Z,28.50
2019-03-24T01:57:44.642Z,29.80
2019-03-24T01:58:44.652Z,29.70
2019-03-24T01:59:44.619Z,31.20
2019-03-24T02:00:44.618Z,31.70
2019-03-24T02:01:44.607Z,27.50
2019-03-24T02:02:44.603Z,29.30
2019-03-24T02:03:44.580Z,28.40
2019-03-24T02:04:44.566Z,32.20
2019-03-24T02:05:44.553Z,30.70
2019-03-24T02:06:44.543Z,28.70
2019-03-24T02:07:44.583Z,27.80
2019-03-24T02:08:44.532Z,31.00
2019-03-24T02:09:44.519Z,28.90
2019-03-24T02:10:44.500Z,28.40
2019-03-24T02:11:44.487Z,31.10
2019-03-24T02:12:44.500Z,28.00
2019-03-24T02:13:44.509Z,27.00
2019-03-24T02:14:44.462Z,30.30
2019-03-24T02:15:44.449Z,28.60
2019-03-24T02:16:44.440Z,28.80
2019-03-24T02:17:44.474Z,26.20
2019-03-24T02:18:44.447Z,23.70
2019-03-24T02:19:44.404Z,27.30
2019-03-24T02:20:44.396Z,27.60
2019-03-24T02:21:44.383Z,27.40
2019-03-24T02:22:44.447Z,32.50
2019-03-24T02:23:44.363Z,28.10
2019-03-24T02:24:44.384Z,26.10
2019-03-24T02:25:44.335Z,27.80
2019-03-24T02:26:44.369Z,28.90
2019-03-24T02:27:44.319Z,24.80
2019-03-24T02:28:44.314Z,24.40
2019-03-24T02:29:44.297Z,24.00
2019-03-24T02:30:44.299Z,25.90
2019-03-24T02:31:44.287Z,24.20
2019-03-24T02:32:44.337Z,25.30
2019-03-24T02:33:44.291Z,22.80
2019-03-24T02:34:44.423Z,24.10
2019-03-24T02:35:44.295Z,24.40
2019-03-24T02:36:44.226Z,27.50
2019-03-24T02:37:44.224Z,26.80
2019-03-24T02:38:44.210Z,25.30
2019-03-24T02:39:44.182Z,21.30
2019-03-24T02:40:44.242Z,22.20
2019-03-24T02:41:44.168Z,25.20
2019-03-24T02:42:44.273Z,22.10
2019-03-24T02:43:44.145Z,21.00
2019-03-24T02:44:44.152Z,25.40
2019-03-24T02:45:44.120Z,21.00
2019-03-24T02:46:44.109Z,24.80
2019-03-24T02:47:44.119Z,25.90
2019-03-24T02:48:44.140Z,23.50
2019-03-24T02:49:44.078Z,21.60
2019-03-24T02:50:44.065Z,22.00
2019-03-24T02:51:44.059Z,20.60
2019-03-24T02:52:44.052Z,18.50
2019-03-24T02:53:44.049Z,21.10
2019-03-24T02:54:44.028Z,23.90
2019-03-24T02:55:44.016Z,18.80
2019-03-24T02:56:44.009Z,23.60
2019-03-24T02:57:44.000Z,19.30
2019-03-24T02:58:44.020Z,19.50
2019-03-24T02:59:43.967Z,19.60
2019-03-24T03:00:43.958Z,19.10
2019-03-24T03:01:43.956Z,20.10
2019-03-24T03:02:43.937Z,22.30
2019-03-24T03:03:43.934Z,22.40
2019-03-24T03:04:43.971Z,17.70
2019-03-24T03:05:43.906Z,19.70
2019-03-24T03:06:43.895Z,20.20
2019-03-24T03:07:43.890Z,18.70
2019-03-24T03:08:43.881Z,21.20
2019-03-24T03:09:43.895Z,17.70
2019-03-24T03:10:43.852Z,17.30
2019-03-24T03:11:43.840Z,20.70
2019-03-24T03:12:43.824Z,20.30
2019-03-24T03:13:43.815Z,16.40
2019-03-24T03:14:43.809Z,19.60
2019-03-24T03:15:43.809Z,15.30
2019-03-24T03:16:43.787Z,16.50
2019-03-24T03:17:43.773Z,17.60
2019-03-24T03:18:43.773Z,19.10
2019-03-24T03:19:43.805Z,16.50
2019-03-24T03:20:43.739Z,16.70
2019-03-24T03:21:43.730Z,16.70
2019-03-24T03:22:43.717Z,15.10
2019-03-24T03:23:43.709Z,19.50
2019-03-24T03:24:43.748Z,17.50
2019-03-24T03:25:43.683Z,17.50
2019-03-24T03:26:43.681Z,16.00
2019-03-24T03:27:43.665Z,16.50
2019-03-24T03:28:43.653Z,19.40
2019-03-24T03:29:43.642Z,19.20
2019-03-24T03:30:43.638Z,18.60
2019-03-24T03:31:43.630Z,18.70
2019-03-24T03:32:43.612Z,15.40
2019-03-24T03:33:43.605Z,18.10
2019-03-24T03:34:43.588Z,18.30
2019-03-24T03:35:43.653Z,21.30
2019-03-24T03:36:43.613Z,19.90
2019-03-24T03:37:43.556Z,15.50
2019-03-24T03:38:43.573Z,18.50
2019-03-24T03:39:43.535Z,16.30
2019-03-24T03:40:43.544Z,18.70
2019-03-24T03:41:43.563Z,18.60
2019-03-24T03:42:43.511Z,17.70
2019-03-24T03:43:43.494Z,17.30
2019-03-24T03:44:43.491Z,17.60
2019-03-24T03:45:43.465Z,18.40
2019-03-24T03:46:52.400Z,18.30
2019-03-24T03:47:44.486Z,18.00
2019-03-24T03:48:43.443Z,19.60
2019-03-24T03:49:43.480Z,16.80
2019-03-24T03:50:43.410Z,18.20
2019-03-24T03:51:43.408Z,19.80
2019-03-24T03:52:43.403Z,18.80
2019-03-24T03:53:43.382Z,16.10
2019-03-24T03:54:43.378Z,15.40
2019-03-24T03:55:43.373Z,16.80
2019-03-24T03:56:43.350Z,18.80
2019-03-24T03:57:43.368Z,13.60
2019-03-24T03:58:43.331Z,20.80
2019-03-24T03:59:43.323Z,17.90
2019-03-24T04:01:34.698Z,15.20
2019-03-24T04:02:34.675Z,19.90
2019-03-24T04:03:34.662Z,19.20
2019-03-24T04:04:34.646Z,14.90
2019-03-24T04:05:34.653Z,21.50
2019-03-24T04:06:34.632Z,17.10
2019-03-24T04:07:34.711Z,15.60
2019-03-24T04:08:34.601Z,20.40
2019-03-24T04:09:34.594Z,16.40
2019-03-24T04:10:34.587Z,18.40
2019-03-24T04:11:34.564Z,17.50
2019-03-24T04:12:34.559Z,17.60
2019-03-24T04:13:34.612Z,19.40
2019-03-24T04:14:34.534Z,21.10
2019-03-24T04:15:34.547Z,18.40
2019-03-24T04:16:34.515Z,19.30
2019-03-24T04:17:34.496Z,18.00
2019-03-24T04:18:34.493Z,17.70
2019-03-24T04:19:34.526Z,16.30
2019-03-24T04:20:34.467Z,17.40
2019-03-24T04:21:34.523Z,16.90
2019-03-24T04:22:34.452Z,17.60
2019-03-24T04:23:34.436Z,15.80
2019-03-24T04:24:34.487Z,17.00
2019-03-24T04:25:34.430Z,20.30
2019-03-24T04:26:34.398Z,17.00
2019-03-24T04:27:34.400Z,20.50
2019-03-24T04:28:34.373Z,16.90
2019-03-24T04:29:34.368Z,21.50
2019-03-24T04:30:34.387Z,14.20
2019-03-24T04:31:34.360Z,19.10
2019-03-24T04:32:34.419Z,15.80
2019-03-24T04:33:34.329Z,20.40
2019-03-24T04:34:34.308Z,20.70
2019-03-24T04:35:34.297Z,14.60
2019-03-24T04:36:34.289Z,18.40
2019-03-24T04:37:34.294Z,16.20
2019-03-24T04:38:34.296Z,19.00
2019-03-24T04:39:34.258Z,18.50
2019-03-24T04:40:34.240Z,18.70
2019-03-24T04:41:34.282Z,14.80
2019-03-24T04:42:34.218Z,19.40
2019-03-24T04:43:34.216Z,16.60
2019-03-24T04:44:34.203Z,19.80
2019-03-24T04:45:34.188Z,18.20
2019-03-24T04:46:34.243Z,16.90
2019-03-24T04:47:34.162Z,20.20
2019-03-24T04:48:34.155Z,20.30
2019-03-24T04:49:34.154Z,14.40
2019-03-24T04:50:34.134Z,15.70
2019-03-24T04:51:34.125Z,18.30
2019-03-24T04:52:34.157Z,15.30
2019-03-24T04:53:34.100Z,16.80
2019-03-24T04:54:34.094Z,19.40
2019-03-24T04:55:34.126Z,15.00
2019-03-24T04:56:34.065Z,18.80
2019-03-24T04:57:34.050Z,16.70
2019-03-24T04:58:34.045Z,18.00
2019-03-24T04:59:34.031Z,16.00
2019-03-24T05:00:34.049Z,18.70
2019-03-24T05:01:34.006Z,20.80
2019-03-24T05:02:34.002Z,16.20
2019-03-24T05:03:33.986Z,17.90
2019-03-24T05:04:33.983Z,15.80
2019-03-24T05:05:33.964Z,18.90
2019-03-24T05:06:34.021Z,18.60
2019-03-24T05:07:33.941Z,17.10
2019-03-24T05:08:33.930Z,14.10
2019-03-24T05:09:33.922Z,17.90
2019-03-24T05:10:33.908Z,16.70
2019-03-24T05:11:33.947Z,17.90
2019-03-24T05:12:33.888Z,17.20
2019-03-24T05:13:33.876Z,19.20
2019-03-24T05:14:33.863Z,14.90
2019-03-24T05:15:33.850Z,14.70
2019-03-24T05:16:33.890Z,17.80
2019-03-24T05:17:33.879Z,15.80
2019-03-24T05:18:33.823Z,18.60
2019-03-24T05:19:33.815Z,18.60
2019-03-24T05:20:33.802Z,17.50
2019-03-24T05:21:33.818Z,18.50
2019-03-24T05:22:33.838Z,16.70
2019-03-24T05:23:33.768Z,16.90
2019-03-24T05:24:33.757Z,15.60
2019-03-24T05:25:33.743Z,17.40
2019-03-24T05:26:33.728Z,17.30
2019-03-24T05:27:33.726Z,17.00
2019-03-24T05:28:33.760Z,15.40
2019-03-24T05:29:33.693Z,16.20
2019-03-24T05:30:33.687Z,19.00
2019-03-24T05:31:33.676Z,15.50
2019-03-24T05:32:33.660Z,15.70
2019-03-24T05:33:33.716Z,18.50
2019-03-24T05:34:33.651Z,19.60
2019-03-24T05:35:33.635Z,14.70
2019-03-24T05:36:33.617Z,16.30
2019-03-24T05:37:33.611Z,16.70
2019-03-24T05:38:33.594Z,14.60
2019-03-24T05:39:33.600Z,16.10
2019-03-24T05:40:33.572Z,16.30
2019-03-24T05:41:33.571Z,16.10
2019-03-24T05:42:33.552Z,16.60
2019-03-24T05:43:33.537Z,16.20
2019-03-24T05:44:33.595Z,17.20
2019-03-24T05:45:33.520Z,18.20
2019-03-24T05:46:33.504Z,18.00
2019-03-24T05:47:37.303Z,17.70
2019-03-24T05:48:33.485Z,17.20
2019-03-24T05:49:33.526Z,15.60
2019-03-24T05:50:33.465Z,14.40
2019-03-24T05:51:33.448Z,16.10
2019-03-24T05:52:33.440Z,15.40
2019-03-24T05:53:33.443Z,14.00
2019-03-24T05:54:33.492Z,14.80
2019-03-24T05:55:33.414Z,15.70
2019-03-24T05:56:33.400Z,18.40
2019-03-24T05:57:33.391Z,15.30
2019-03-24T05:58:33.374Z,14.60
2019-03-24T05:59:33.367Z,16.00
2019-03-24T06:00:33.415Z,14.70
2019-03-24T06:01:33.338Z,16.30
2019-03-24T06:02:33.331Z,14.70
2019-03-24T06:03:33.322Z,16.00
2019-03-24T06:04:33.315Z,14.90
2019-03-24T06:05:33.341Z,14.60
2019-03-24T06:06:33.351Z,16.20
2019-03-24T06:07:33.269Z,14.80
2019-03-24T06:08:33.259Z,17.10
2019-03-24T06:09:33.248Z,15.10
2019-03-24T06:10:33.241Z,13.10
2019-03-24T06:11:33.277Z,15.50
2019-03-24T06:12:33.214Z,17.20
2019-03-24T06:13:33.223Z,15.70
2019-03-24T06:14:33.198Z,14.40
2019-03-24T06:15:33.189Z,14.80
2019-03-24T06:16:33.190Z,17.50
2019-03-24T06:17:33.174Z,14.40
2019-03-24T06:18:33.157Z,13.80
2019-03-24T06:19:33.136Z,15.90
2019-03-24T06:20:33.129Z,16.00
2019-03-24T06:21:33.146Z,13.90
2019-03-24T06:22:33.103Z,13.50
2019-03-24T06:23:33.092Z,16.10
2019-03-24T06:24:33.085Z,15.80
2019-03-24T06:25:34.934Z,16.40
2019-03-24T06:26:33.073Z,16.10
2019-03-24T06:27:33.056Z,16.50
2019-03-24T06:28:33.036Z,16.20
2019-03-24T06:29:33.029Z,14.90
2019-03-24T06:30:33.031Z,16.50
2019-03-24T06:31:33.052Z,14.60
2019-03-24T06:32:32.996Z,17.20
2019-03-24T06:33:33.033Z,15.70
2019-03-24T06:34:32.973Z,15.70
2019-03-24T06:35:32.962Z,13.40
2019-03-24T06:36:32.946Z,16.10
2019-03-24T06:37:32.936Z,16.70
2019-03-24T06:38:33.015Z,16.20
2019-03-24T06:39:32.917Z,18.10
2019-03-24T06:40:32.911Z,16.50
2019-03-24T06:41:32.894Z,15.40
2019-03-24T06:42:32.886Z,15.90
2019-03-24T06:43:32.908Z,14.40
2019-03-24T06:44:32.863Z,18.20
2019-03-24T06:45:32.851Z,16.10
2019-03-24T06:46:32.848Z,15.30
2019-03-24T06:47:32.827Z,15.90
2019-03-24T06:48:32.887Z,12.90
2019-03-24T06:49:32.804Z,16.40
2019-03-24T06:50:32.793Z,15.90
2019-03-24T06:51:32.817Z,15.50
2019-03-24T06:52:32.779Z,15.00
2019-03-24T06:53:32.770Z,16.70
2019-03-24T06:54:53.750Z,14.60
2019-03-24T06:55:32.736Z,15.30
2019-03-24T06:56:32.734Z,13.90
2019-03-24T06:57:32.714Z,13.60
2019-03-24T06:58:32.709Z,12.90
2019-03-24T06:59:32.762Z,16.30
2019-03-24T07:00:32.685Z,16.40
2019-03-24T07:01:32.673Z,15.20
2019-03-24T07:02:32.658Z,14.90
2019-03-24T07:03:32.849Z,10.20
2019-03-24T07:04:32.636Z,14.70
2019-03-24T07:05:32.681Z,13.80
2019-03-24T07:06:34.714Z,17.50
2019-03-24T07:07:32.653Z,16.00
2019-03-24T07:08:32.597Z,14.20
2019-03-24T07:09:32.581Z,14.10
2019-03-24T07:10:32.638Z,14.00
2019-03-24T07:11:32.567Z,13.60
2019-03-24T07:12:32.552Z,15.90
2019-03-24T07:13:32.537Z,14.10
2019-03-24T07:14:32.528Z,15.30
2019-03-24T07:15:32.520Z,15.40
2019-03-24T07:16:32.570Z,15.60
2019-03-24T07:17:32.499Z,14.70
2019-03-24T07:18:32.480Z,15.00
2019-03-24T07:19:32.473Z,16.20
2019-03-24T07:20:32.525Z,14.00
2019-03-24T07:21:32.462Z,16.30
2019-03-24T07:22:32.437Z,17.10
2019-03-24T07:23:32.431Z,15.70
2019-03-24T07:24:32.428Z,11.30
2019-03-24T07:25:32.409Z,14.80
2019-03-24T07:26:32.442Z,13.30
2019-03-24T07:27:32.387Z,14.00
2019-03-24T07:28:32.376Z,13.70
2019-03-24T07:29:32.361Z,16.20
2019-03-24T07:30:32.355Z,14.60
2019-03-24T07:31:32.353Z,13.00
2019-03-24T07:32:32.333Z,14.90
2019-03-24T07:33:32.321Z,12.20
2019-03-24T07:34:32.309Z,12.40
2019-03-24T07:35:32.301Z,13.30
2019-03-24T07:36:32.317Z,12.10
2019-03-24T07:37:32.275Z,13.00
2019-03-24T07:38:32.261Z,12.70
2019-03-24T07:39:32.248Z,12.90
2019-03-24T07:40:32.239Z,11.30
2019-03-24T07:41:32.231Z,13.00
2019-03-24T07:42:32.241Z,11.50
2019-03-24T07:43:32.206Z,13.50
2019-03-24T07:44:32.197Z,15.50
2019-03-24T07:45:32.187Z,13.50
2019-03-24T07:46:32.177Z,13.80
2019-03-24T07:47:32.214Z,13.20
2019-03-24T07:48:32.153Z,11.90
2019-03-24T07:49:32.145Z,10.50
2019-03-24T07:50:32.129Z,10.50
2019-03-24T07:51:32.123Z,11.80
2019-03-24T07:52:32.157Z,15.50
2019-03-24T07:53:32.095Z,11.90
2019-03-24T07:54:32.135Z,10.30
2019-03-24T07:55:32.078Z,12.80
2019-03-24T07:56:32.066Z,14.70
2019-03-24T07:57:32.097Z,12.30
2019-03-24T07:58:32.045Z,11.30
2019-03-24T07:59:32.031Z,14.70
2019-03-24T08:00:32.017Z,13.10
2019-03-24T08:01:32.005Z,13.20
2019-03-24T08:02:32.000Z,11.90
2019-03-24T08:03:32.052Z,12.00
2019-03-24T08:04:31.972Z,15.60
2019-03-24T08:05:31.966Z,14.90
2019-03-24T08:06:31.959Z,15.20
2019-03-24T08:07:31.939Z,10.60
2019-03-24T08:08:31.931Z,11.70
2019-03-24T08:09:31.933Z,10.00
2019-03-24T08:10:31.915Z,13.40
2019-03-24T08:11:31.944Z,12.60
2019-03-24T08:12:31.885Z,12.10
2019-03-24T08:13:31.938Z,11.20
2019-03-24T08:14:31.861Z,12.20
2019-03-24T08:15:31.850Z,13.40
2019-03-24T08:16:31.841Z,15.40
2019-03-24T08:17:31.838Z,12.20
2019-03-24T08:18:31.815Z,11.80
2019-03-24T08:19:31.817Z,16.30
2019-03-24T08:20:31.810Z,11.10
2019-03-24T08:21:31.785Z,12.60
2019-03-24T08:22:31.772Z,13.00
2019-03-24T08:23:31.766Z,12.80
2019-03-24T08:24:31.786Z,11.20
2019-03-24T08:25:31.738Z,16.20
2019-03-24T08:26:31.730Z,13.20
2019-03-24T08:27:31.726Z,11.00
2019-03-24T08:28:31.713Z,12.20
2019-03-24T08:29:31.696Z,16.00
2019-03-24T08:30:31.702Z,11.00
2019-03-24T08:31:31.678Z,16.00
2019-03-24T08:32:31.663Z,11.60
2019-03-24T08:33:31.656Z,14.20
2019-03-24T08:34:31.648Z,11.80
2019-03-24T08:35:31.633Z,10.20
2019-03-24T08:36:31.617Z,12.40
2019-03-24T08:37:31.612Z,11.80
2019-03-24T08:38:31.597Z,11.80
2019-03-24T08:39:31.616Z,11.90
2019-03-24T08:40:31.577Z,10.00
2019-03-24T08:41:31.567Z,14.20
2019-03-24T08:42:31.553Z,13.60
2019-03-24T08:43:31.538Z,10.00
2019-03-24T08:44:31.535Z,11.90
2019-03-24T08:45:31.532Z,11.00
2019-03-24T08:46:31.509Z,12.10
2019-03-24T08:47:31.501Z,11.10
2019-03-24T08:48:40.400Z,13.20
2019-03-24T08:49:32.481Z,10.20
2019-03-24T08:50:31.511Z,14.80
2019-03-24T08:51:31.450Z,9.70
2019-03-24T08:52:31.437Z,9.60
2019-03-24T08:53:31.438Z,11.40
2019-03-24T08:54:31.416Z,10.40
2019-03-24T08:55:31.409Z,8.80
2019-03-24T08:56:31.400Z,13.40
2019-03-24T08:57:32.489Z,12.90
2019-03-24T08:58:31.374Z,11.40
2019-03-24T08:59:31.360Z,10.20
2019-03-24T09:00:31.350Z,13.80
2019-03-24T09:01:31.395Z,11.30
2019-03-24T09:02:31.341Z,11.10
2019-03-24T09:03:32.661Z,10.40
2019-03-24T09:04:31.303Z,12.10
2019-03-24T09:05:33.611Z,11.20
2019-03-24T09:06:31.286Z,12.30
2019-03-24T09:07:31.280Z,11.60
2019-03-24T09:08:31.263Z,11.80
2019-03-24T09:09:31.255Z,13.90
2019-03-24T09:10:31.235Z,13.30
2019-03-24T09:11:31.728Z,16.30
2019-03-24T09:12:31.398Z,11.70
2019-03-24T09:13:31.207Z,13.70
2019-03-24T09:14:31.190Z,10.60
2019-03-24T09:15:31.178Z,9.20
2019-03-24T09:16:31.169Z,12.80
2019-03-24T09:17:31.220Z,9.90
2019-03-24T09:18:31.162Z,10.50
2019-03-24T09:19:31.172Z,10.20
2019-03-24T09:20:40.996Z,12.80
2019-03-24T09:21:32.114Z,13.30
2019-03-24T09:22:31.905Z,10.30
2019-03-24T09:23:31.090Z,10.70
2019-03-24T09:24:31.097Z,12.30
2019-03-24T09:25:31.115Z,10.20
2019-03-24T09:26:31.065Z,14.10
2019-03-24T09:27:31.056Z,12.10
2019-03-24T09:28:31.041Z,11.10
2019-03-24T09:29:31.045Z,12.00
2019-03-24T09:30:31.015Z,12.10
2019-03-24T09:31:31.003Z,11.30
2019-03-24T09:32:31.001Z,11.90
2019-03-24T09:33:30.982Z,11.40
2019-03-24T09:34:30.983Z,9.90
2019-03-24T09:35:30.961Z,13.50
2019-03-24T09:36:30.963Z,11.90
2019-03-24T09:37:30.945Z,8.30
2019-03-24T09:38:30.933Z,12.00
2019-03-24T09:39:30.927Z,12.50
2019-03-24T09:40:30.909Z,11.80
2019-03-24T09:41:30.901Z,14.00
2019-03-24T09:42:30.894Z,9.30
2019-03-24T09:43:30.875Z,10.10
2019-03-24T09:44:30.873Z,11.60
2019-03-24T09:45:30.853Z,9.70
2019-03-24T09:46:30.855Z,9.10
2019-03-24T09:47:30.827Z,9.60
2019-03-24T09:48:30.821Z,12.00
2019-03-24T09:49:30.817Z,10.10
2019-03-24T09:50:30.810Z,9.60
2019-03-24T09:51:30.781Z,10.40
2019-03-24T09:52:30.776Z,10.80
2019-03-24T09:53:30.766Z,13.40
2019-03-24T09:54:30.756Z,10.50
2019-03-24T09:55:30.880Z,11.30
2019-03-24T09:56:30.730Z,10.00
2019-03-24T09:57:30.718Z,11.20
2019-03-24T09:58:30.705Z,12.00
2019-03-24T09:59:30.711Z,10.80
2019-03-24T10:00:30.692Z,11.50
2019-03-24T10:01:37.734Z,10.90
2019-03-24T10:02:30.668Z,11.00
2019-03-24T10:03:30.652Z,10.70
2019-03-24T10:04:30.659Z,9.80
2019-03-24T10:05:30.636Z,10.00
2019-03-24T10:06:30.629Z,10.70
2019-03-24T10:07:30.609Z,9.10
2019-03-24T10:08:30.592Z,9.10
2019-03-24T10:09:30.584Z,9.90
2019-03-24T10:10:30.572Z,9.20
2019-03-24T10:11:30.572Z,10.20
2019-03-24T10:12:32.192Z,11.90
2019-03-24T10:13:30.544Z,10.50
2019-03-24T10:14:30.535Z,11.70
2019-03-24T10:15:30.521Z,9.30
2019-03-24T10:16:33.974Z,8.60
2019-03-24T10:17:30.501Z,10.00
2019-03-24T10:18:30.500Z,10.60
2019-03-24T10:19:30.473Z,11.00
2019-03-24T10:20:30.462Z,7.20
2019-03-24T10:21:30.449Z,9.50
2019-03-24T10:22:30.455Z,9.90
2019-03-24T10:23:30.427Z,9.00
2019-03-24T10:24:30.417Z,9.70
2019-03-24T10:25:30.410Z,7.50
2019-03-24T10:26:30.396Z,7.30
2019-03-24T10:27:30.415Z,9.80
2019-03-24T10:28:30.379Z,9.70
2019-03-24T10:29:30.941Z,9.70
2019-03-24T10:30:30.408Z,7.00
2019-03-24T10:31:30.346Z,9.80
2019-03-24T10:32:30.335Z,9.50
2019-03-24T10:33:30.421Z,7.40
2019-03-24T10:34:30.367Z,7.20
2019-03-24T10:35:30.300Z,8.80
2019-03-24T10:36:30.290Z,9.60
2019-03-24T10:37:30.281Z,11.40
2019-03-24T10:38:30.268Z,6.70
2019-03-24T10:39:31.983Z,7.00
2019-03-24T10:40:30.244Z,7.70
2019-03-24T10:41:30.229Z,8.70
2019-03-24T10:43:07.649Z,8.70
2019-03-24T10:43:30.205Z,7.40
2019-03-24T10:44:30.299Z,9.70
2019-03-24T10:45:30.230Z,7.80
2019-03-24T10:46:31.549Z,10.30
2019-03-24T10:47:30.165Z,7.70
2019-03-24T10:48:33.930Z,7.40
2019-03-24T10:49:30.144Z,8.20
2019-03-24T10:50:30.132Z,8.70
2019-03-24T10:51:30.116Z,8.70
2019-03-24T10:52:30.114Z,6.90
2019-03-24T10:53:30.099Z,8.70
2019-03-24T10:54:30.102Z,9.10
2019-03-24T10:55:30.076Z,8.70
2019-03-24T10:56:30.061Z,8.50
2019-03-24T10:57:30.097Z,9.10
2019-03-24T10:58:30.045Z,9.10
2019-03-24T10:59:30.609Z,7.80
2019-03-24T11:00:30.019Z,6.80
2019-03-24T11:01:30.010Z,9.70
2019-03-24T11:02:30.000Z,7.10
2019-03-24T11:03:29.987Z,9.40
2019-03-24T11:04:30.010Z,9.90
2019-03-24T11:05:29.968Z,9.00
2019-03-24T11:06:29.951Z,13.90
2019-03-24T11:07:29.946Z,9.40
2019-03-24T11:08:29.928Z,9.60
2019-03-24T11:09:29.916Z,8.60
2019-03-24T11:10:30.062Z,7.70
2019-03-24T11:11:29.900Z,8.10
2019-03-24T11:12:29.890Z,9.60
2019-03-24T11:13:29.872Z,10.30
2019-03-24T11:14:29.870Z,11.00
2019-03-24T11:15:29.851Z,8.00
2019-03-24T11:16:29.937Z,10.20
2019-03-24T11:17:29.834Z,8.80
2019-03-24T11:18:29.820Z,7.80
2019-03-24T11:19:35.597Z,8.40
2019-03-24T11:20:30.797Z,11.20
2019-03-24T11:21:29.796Z,11.20
2019-03-24T11:22:29.780Z,8.60
2019-03-24T11:23:29.765Z,8.80
2019-03-24T11:24:29.772Z,8.70
2019-03-24T11:25:30.493Z,8.40
2019-03-24T11:26:29.743Z,8.10
2019-03-24T11:27:29.724Z,5.80
2019-03-24T11:28:29.780Z,8.40
2019-03-24T11:29:29.705Z,8.00
2019-03-24T11:30:29.698Z,7.40
2019-03-24T11:31:29.844Z,9.30
2019-03-24T11:32:29.671Z,8.20
2019-03-24T11:33:29.814Z,6.50
2019-03-24T11:34:29.651Z,6.70
2019-03-24T11:35:29.637Z,8.20
2019-03-24T11:36:29.631Z,8.00
2019-03-24T11:37:29.725Z,7.60
2019-03-24T11:38:29.601Z,7.30
2019-03-24T11:39:29.592Z,8.70
2019-03-24T11:40:29.585Z,9.60
2019-03-24T11:41:29.578Z,6.20
2019-03-24T11:42:29.556Z,9.50
2019-03-24T11:43:29.574Z,8.50
2019-03-24T11:44:29.534Z,7.50
2019-03-24T11:45:29.528Z,6.10
2019-03-24T11:46:29.517Z,6.60
2019-03-24T11:47:29.515Z,5.70
2019-03-24T11:48:29.496Z,5.60
2019-03-24T11:49:29.516Z,4.70
2019-03-24T11:50:29.475Z,7.10
2019-03-24T11:51:29.460Z,4.10
2019-03-24T11:52:29.459Z,5.30
2019-03-24T11:53:29.437Z,5.90
2019-03-24T11:54:29.426Z,5.90
2019-03-24T11:55:29.441Z,7.30
2019-03-24T11:56:29.411Z,7.60
2019-03-24T11:57:29.400Z,7.50
2019-03-24T11:58:29.404Z,6.10
2019-03-24T11:59:29.376Z,6.70
2019-03-24T12:00:29.383Z,7.10
2019-03-24T12:01:37.907Z,5.90
2019-03-24T12:02:30.377Z,6.20
2019-03-24T12:03:29.334Z,7.00
2019-03-24T12:04:29.319Z,7.10
2019-03-24T12:05:29.311Z,6.10
2019-03-24T12:06:29.295Z,7.60
2019-03-24T12:07:29.285Z,7.80
2019-03-24T12:08:29.286Z,6.60
2019-03-24T12:09:29.263Z,6.40
2019-03-24T12:10:29.261Z,6.00
2019-03-24T12:11:29.238Z,5.70
2019-03-24T12:12:29.233Z,9.00
2019-03-24T12:13:29.226Z,3.90
2019-03-24T12:14:29.529Z,6.40
2019-03-24T12:15:29.199Z,6.00
2019-03-24T12:16:29.189Z,6.60
2019-03-24T12:17:29.180Z,7.40
2019-03-24T12:18:29.168Z,8.20
2019-03-24T12:19:29.186Z,6.90
2019-03-24T12:20:29.145Z,4.80
2019-03-24T12:21:29.131Z,8.80
2019-03-24T12:22:29.125Z,5.50
2019-03-24T12:23:29.112Z,6.50
2019-03-24T12:24:29.101Z,5.90
2019-03-24T12:25:29.102Z,7.40
2019-03-24T12:26:29.086Z,6.80
2019-03-24T12:27:29.066Z,7.30
2019-03-24T12:28:29.054Z,6.60
2019-03-24T12:29:29.050Z,6.20
2019-03-24T12:30:29.035Z,8.30
2019-03-24T12:31:29.023Z,7.50
2019-03-24T12:32:29.015Z,7.70
2019-03-24T12:33:29.006Z,6.60
2019-03-24T12:34:28.996Z,6.60
2019-03-24T12:35:28.977Z,8.40
2019-03-24T12:36:28.972Z,5.70
2019-03-24T12:37:28.961Z,7.10
2019-03-24T12:38:28.949Z,6.50
2019-03-24T12:39:28.970Z,7.80
2019-03-24T12:40:28.927Z,6.70
2019-03-24T12:41:28.910Z,5.80
2019-03-24T12:42:28.902Z,8.80
2019-03-24T12:43:28.890Z,6.10
2019-03-24T12:44:28.885Z,7.60
2019-03-24T12:45:28.885Z,6.30
2019-03-24T12:46:28.856Z,6.40
2019-03-24T12:47:28.844Z,5.60
2019-03-24T12:48:29.002Z,8.20
2019-03-24T12:49:28.828Z,7.40
2019-03-24T12:50:31.752Z,6.80
2019-03-24T12:51:28.807Z,7.40
2019-03-24T12:52:28.802Z,5.50
2019-03-24T12:53:28.785Z,6.10
2019-03-24T12:54:28.768Z,8.00
2019-03-24T12:55:28.768Z,7.70
2019-03-24T12:56:28.771Z,5.20
2019-03-24T12:57:28.740Z,9.20
2019-03-24T12:58:28.737Z,8.70
2019-03-24T12:59:28.721Z,8.10